Time;durP1;ratioP1;P1;durP2;ratioP2;P2;SDS_P1;SDS_P2;PMS_P1;PMS_P2;Temp;Humidity;BMP_temperature;BMP_pressure;BME280_temperature;BME280_humidity;BME280_pressure;Samples;Min_cycle;Max_cycle;Signal;HPM_P1;HPM_P2
2021/12/04 00:02:11;;;;;;;11.57;4.88;;;5.10;99.90;;;;;;5073125;28;20423;-83
2021/12/04 00:04:40;;;;;;;6.18;4.28;;;5.00;99.90;;;;;;5073177;28;20023;-83
2021/12/04 00:07:09;;;;;;;6.78;4.70;;;5.00;99.90;;;;;;5073360;28;20028;-82
2021/12/04 00:09:35;;;;;;;5.68;4.32;;;4.90;99.90;;;;;;5073216;28;20021;-83
2021/12/04 00:12:03;;;;;;;6.28;4.20;;;4.90;99.90;;;;;;5071487;28;20056;-82
2021/12/04 00:14:31;;;;;;;7.70;4.90;;;4.90;99.90;;;;;;5072388;28;20024;-82
2021/12/04 00:16:57;;;;;;;7.00;4.75;;;4.80;99.90;;;;;;5072381;28;20032;-82
2021/12/04 00:19:24;;;;;;;6.65;4.75;;;4.80;99.90;;;;;;5072894;28;20453;-83
2021/12/04 00:21:50;;;;;;;7.35;4.78;;;4.80;99.90;;;;;;5071693;28;20566;-83
2021/12/04 00:24:17;;;;;;;7.95;5.55;;;4.80;99.90;;;;;;5072512;28;20024;-80
2021/12/04 00:26:43;;;;;;;7.97;5.65;;;4.70;99.90;;;;;;5072860;28;20055;-81
2021/12/04 00:29:09;;;;;;;10.20;5.72;;;4.70;99.90;;;;;;5072612;28;20024;-81
2021/12/04 00:31:35;;;;;;;12.05;6.55;;;4.70;99.90;;;;;;5072577;28;20028;-81
2021/12/04 00:34:01;;;;;;;7.47;5.78;;;4.60;99.90;;;;;;5071994;28;20477;-81
2021/12/04 00:49:54;;;;;;;10.32;4.68;;;4.70;99.90;;;;;;5072732;28;20023;-81
2021/12/04 00:52:20;;;;;;;7.53;4.80;;;4.70;99.90;;;;;;5072669;28;20470;-81
2021/12/04 00:54:46;;;;;;;7.05;4.72;;;4.60;99.90;;;;;;5072763;28;20093;-80
2021/12/04 00:57:12;;;;;;;6.50;4.07;;;4.70;99.90;;;;;;5072709;28;20450;-83
2021/12/04 00:59:38;;;;;;;7.63;4.68;;;4.70;99.90;;;;;;5072311;28;20024;-83
2021/12/04 01:02:05;;;;;;;6.47;4.15;;;4.70;99.90;;;;;;5072226;28;20393;-83
2021/12/04 01:04:31;;;;;;;7.45;4.85;;;4.60;99.90;;;;;;5072384;28;20031;-83
2021/12/04 01:06:56;;;;;;;7.18;4.25;;;4.60;99.90;;;;;;5072465;28;20480;-82
2021/12/04 01:09:24;;;;;;;9.40;4.57;;;4.50;99.90;;;;;;5072240;28;20032;-83
2021/12/04 01:11:51;;;;;;;5.90;4.07;;;4.50;99.90;;;;;;5072552;28;20083;-83
2021/12/04 01:14:20;;;;;;;7.65;4.80;;;4.40;99.90;;;;;;5072646;28;20123;-83
2021/12/04 01:16:47;;;;;;;6.50;3.95;;;4.40;99.90;;;;;;5072550;28;20047;-82
2021/12/04 01:19:18;;;;;;;8.73;4.10;;;4.40;99.90;;;;;;5072049;28;20024;-83
2021/12/04 01:21:45;;;;;;;5.78;4.35;;;4.50;99.90;;;;;;5072188;28;20439;-82
2021/12/04 01:24:11;;;;;;;6.45;4.45;;;4.50;99.90;;;;;;5072248;28;20029;-82
2021/12/04 01:26:38;;;;;;;5.25;4.00;;;4.50;99.90;;;;;;5071304;28;20033;-83
2021/12/04 01:29:04;;;;;;;7.15;3.67;;;4.50;99.90;;;;;;5070312;28;20031;-83
2021/12/04 01:31:29;;;;;;;7.20;4.35;;;4.40;99.90;;;;;;5072060;28;20385;-82
2021/12/04 01:33:55;;;;;;;8.40;4.20;;;4.50;99.90;;;;;;5072247;28;20059;-83
2021/12/04 01:36:21;;;;;;;4.95;3.90;;;4.50;99.90;;;;;;5072183;28;20166;-82
2021/12/04 01:38:47;;;;;;;4.28;3.20;;;4.50;99.90;;;;;;5072214;28;20017;-83
2021/12/04 01:41:13;;;;;;;6.70;4.13;;;4.60;99.90;;;;;;5072033;28;20016;-82
2021/12/04 01:43:39;;;;;;;6.32;3.33;;;4.60;99.90;;;;;;5074294;28;20489;-82
2021/12/04 01:46:05;;;;;;;5.68;3.67;;;4.70;99.90;;;;;;5075898;28;20025;-82
2021/12/04 01:48:31;;;;;;;6.10;4.28;;;4.70;99.90;;;;;;5075907;28;20431;-82
2021/12/04 01:50:57;;;;;;;11.43;4.20;;;4.70;99.90;;;;;;5075760;28;20027;-82
2021/12/04 01:53:24;;;;;;;4.75;3.70;;;4.70;99.90;;;;;;5075595;28;20075;-82
2021/12/04 01:55:56;;;;;;;5.97;4.63;;;4.60;99.90;;;;;;5074058;28;20017;-83
2021/12/04 01:58:23;;;;;;;5.57;4.35;;;4.60;99.90;;;;;;5075433;28;20392;-83
2021/12/04 02:00:49;;;;;;;6.00;4.13;;;4.60;99.90;;;;;;5075447;28;20151;-81
2021/12/04 02:03:17;;;;;;;7.55;3.95;;;4.60;99.90;;;;;;5075368;28;20536;-83
2021/12/04 02:05:43;;;;;;;7.30;4.63;;;4.70;99.90;;;;;;5075336;28;20025;-82
2021/12/04 02:08:12;;;;;;;4.82;3.78;;;4.60;99.90;;;;;;5074057;28;20448;-82
2021/12/04 02:10:39;;;;;;;7.10;4.55;;;4.60;99.90;;;;;;5075108;28;20477;-82
2021/12/04 02:13:05;;;;;;;6.63;4.07;;;4.60;99.90;;;;;;5075218;28;20056;-82
2021/12/04 02:15:31;;;;;;;5.95;4.40;;;4.60;99.90;;;;;;5075072;28;20060;-80
2021/12/04 02:17:58;;;;;;;7.13;4.22;;;4.50;99.90;;;;;;5074839;28;20032;-80
2021/12/04 02:20:27;;;;;;;8.38;4.40;;;4.50;99.90;;;;;;5075386;28;20369;-80
2021/12/04 02:22:54;;;;;;;4.38;3.83;;;4.50;99.90;;;;;;5075079;28;20056;-80
2021/12/04 02:25:20;;;;;;;6.30;4.40;;;4.60;99.90;;;;;;5075156;28;20028;-82
2021/12/04 02:27:46;;;;;;;6.75;4.45;;;4.50;99.90;;;;;;5075074;28;20073;-83
2021/12/04 02:30:16;;;;;;;9.52;4.28;;;4.60;99.90;;;;;;5075332;28;20115;-80
2021/12/04 02:32:43;;;;;;;6.30;4.40;;;4.60;99.90;;;;;;5074963;28;20540;-80
2021/12/04 02:35:10;;;;;;;7.25;4.82;;;4.60;99.90;;;;;;5074735;28;20201;-80
2021/12/04 02:37:38;;;;;;;6.25;4.85;;;4.60;99.90;;;;;;5074627;28;20021;-80
2021/12/04 02:40:06;;;;;;;6.00;4.35;;;4.60;99.90;;;;;;5074729;28;20025;-80
2021/12/04 02:42:32;;;;;;;9.77;5.03;;;4.60;99.90;;;;;;5074394;28;20404;-80
2021/12/04 02:44:59;;;;;;;9.65;4.22;;;4.60;99.90;;;;;;5073440;28;20024;-82
2021/12/04 02:47:29;;;;;;;5.45;4.20;;;4.70;99.90;;;;;;5074290;28;20016;-82
2021/12/04 02:49:57;;;;;;;6.25;4.13;;;4.70;99.90;;;;;;5074670;28;20102;-82
2021/12/04 02:52:23;;;;;;;5.90;4.28;;;4.70;99.90;;;;;;5074443;28;20036;-82
2021/12/04 02:54:51;;;;;;;9.82;4.30;;;4.60;99.90;;;;;;5074689;28;20096;-82
2021/12/04 02:57:19;;;;;;;6.13;4.47;;;4.60;99.90;;;;;;5066181;28;20025;-82
2021/12/04 02:59:46;;;;;;;7.20;4.50;;;4.60;99.90;;;;;;5052441;28;20032;-82
2021/12/04 03:02:24;;;;;;;6.32;4.55;;;4.60;99.90;;;;;;5053912;28;20035;-82
2021/12/04 03:04:52;;;;;;;14.05;4.78;;;4.60;99.90;;;;;;5054326;28;20052;-83
2021/12/04 03:07:19;;;;;;;6.78;4.55;;;4.60;99.90;;;;;;5054108;28;20021;-82
2021/12/04 03:09:45;;;;;;;8.07;4.45;;;4.60;99.90;;;;;;5054167;28;20025;-82
2021/12/04 03:12:12;;;;;;;8.50;4.72;;;4.50;99.90;;;;;;5053914;28;20036;-82
2021/12/04 03:14:38;;;;;;;7.05;5.03;;;4.50;99.90;;;;;;5054014;28;20461;-82
2021/12/04 03:17:05;;;;;;;8.10;4.97;;;4.40;99.90;;;;;;5053917;28;20474;-81
2021/12/04 03:19:32;;;;;;;5.68;4.50;;;4.40;99.90;;;;;;5053976;28;20100;-82
2021/12/04 03:21:58;;;;;;;8.27;4.85;;;4.30;99.90;;;;;;5054027;28;20040;-81
2021/12/04 03:24:25;;;;;;;8.63;5.47;;;4.30;99.90;;;;;;5053801;28;20021;-82
2021/12/04 03:26:51;;;;;;;7.78;5.45;;;4.30;99.90;;;;;;5053583;28;20028;-81
2021/12/04 03:29:22;;;;;;;7.18;4.78;;;4.30;99.90;;;;;;5053837;28;20021;-83
2021/12/04 03:40:10;;;;;;;9.50;5.90;;;4.30;99.90;;;;;;5053986;28;20040;-82
2021/12/04 03:42:40;;;;;;;9.38;5.47;;;4.30;99.90;;;;;;5053384;28;20087;-83
2021/12/04 03:45:08;;;;;;;7.50;5.57;;;4.30;99.90;;;;;;5053540;28;20028;-82
2021/12/04 03:47:38;;;;;;;13.45;5.53;;;4.20;99.90;;;;;;5062378;28;20032;-82
2021/12/04 03:50:04;;;;;;;7.32;5.55;;;4.20;99.90;;;;;;5073797;28;20028;-82
2021/12/04 03:52:30;;;;;;;7.63;5.40;;;4.20;99.90;;;;;;5071844;28;20150;-82
2021/12/04 03:54:56;;;;;;;7.47;4.97;;;4.20;99.90;;;;;;5072259;28;20518;-82
2021/12/04 03:57:22;;;;;;;6.47;5.25;;;4.20;99.90;;;;;;5073123;28;20032;-83
2021/12/04 03:59:48;;;;;;;7.68;4.75;;;4.20;99.90;;;;;;5073251;28;20025;-81
2021/12/04 04:02:16;;;;;;;9.15;6.05;;;4.10;99.90;;;;;;5073205;28;20096;-83
2021/12/04 04:04:42;;;;;;;10.20;6.22;;;4.10;99.90;;;;;;5073514;28;20020;-82
2021/12/04 04:07:08;;;;;;;11.80;7.60;;;4.10;99.90;;;;;;5072572;28;20523;-82
2021/12/04 04:09:34;;;;;;;8.48;5.68;;;4.10;99.90;;;;;;5072754;28;20025;-82
2021/12/04 04:12:00;;;;;;;8.65;5.53;;;4.10;99.90;;;;;;5073487;28;20028;-80
2021/12/04 04:14:27;;;;;;;9.77;4.85;;;4.00;99.90;;;;;;5072840;28;20016;-80
2021/12/04 04:16:54;;;;;;;6.15;4.93;;;4.00;99.90;;;;;;5072889;28;20036;-80
2021/12/04 04:19:21;;;;;;;6.93;4.70;;;4.00;99.90;;;;;;5072839;28;20113;-80
2021/12/04 04:21:47;;;;;;;7.65;4.70;;;4.10;99.90;;;;;;5072614;28;20043;-80
2021/12/04 04:24:16;;;;;;;6.85;4.70;;;4.10;99.90;;;;;;5072548;28;20095;-80
2021/12/04 04:26:43;;;;;;;5.70;4.40;;;4.20;99.90;;;;;;5072984;28;20035;-81
2021/12/04 04:29:10;;;;;;;7.82;4.78;;;4.30;99.90;;;;;;5072587;28;20465;-81
2021/12/04 04:31:45;;;;;;;5.60;4.50;;;4.30;99.90;;;;;;5072703;28;20406;-80
2021/12/04 04:34:11;;;;;;;6.65;4.97;;;4.30;99.90;;;;;;5072641;28;20038;-82
2021/12/04 04:58:43;;;;;;;8.50;4.60;;;4.30;99.90;;;;;;5072491;28;20089;-83
2021/12/04 05:01:22;;;;;;;7.63;4.70;;;4.30;99.90;;;;;;5072413;28;20017;-82
2021/12/04 05:14:33;;;;;;;;;;;4.30;99.90;;;;;;5072931;28;20047;-83
2021/12/04 05:17:04;;;;;;;7.25;5.00;;;4.30;99.90;;;;;;5072007;28;19912;-82
2021/12/04 05:19:41;;;;;;;;;;;4.30;99.90;;;;;;5075349;28;20028;-82
2021/12/04 05:22:09;;;;;;;7.15;4.82;;;4.20;99.90;;;;;;5076005;28;19912;-80
2021/12/04 05:24:35;;;;;;;7.03;4.65;;;4.10;99.90;;;;;;5076371;28;20027;-81
2021/12/04 05:27:01;;;;;;;6.25;4.45;;;4.10;99.90;;;;;;5076083;28;20029;-80
2021/12/04 05:29:27;;;;;;;8.70;5.05;;;4.10;99.90;;;;;;5076129;28;20044;-80
2021/12/04 05:31:53;;;;;;;9.85;5.63;;;4.00;99.90;;;;;;5076134;28;20039;-80
2021/12/04 05:34:19;;;;;;;9.30;5.03;;;3.90;99.90;;;;;;5076241;28;20027;-82
2021/12/04 05:36:45;;;;;;;9.30;4.95;;;3.90;99.90;;;;;;5075959;28;20025;-81
2021/12/04 05:39:11;;;;;;;6.30;4.45;;;3.90;99.90;;;;;;5074552;28;20035;-81
2021/12/04 05:41:37;;;;;;;5.70;4.20;;;3.90;99.90;;;;;;5075648;28;20029;-81
2021/12/04 05:44:06;;;;;;;9.27;4.90;;;4.00;99.90;;;;;;5076046;28;20039;-82
2021/12/04 05:46:45;;;;;;;9.45;4.75;;;4.00;99.90;;;;;;5075808;28;20056;-82
2021/12/04 05:49:19;;;;;;;7.07;5.07;;;4.00;99.90;;;;;;5075840;28;20017;-81
2021/12/04 05:54:33;;;;;;;6.18;4.88;;;4.00;99.90;;;;;;5075453;28;20016;-82
2021/12/04 05:56:59;;;;;;;9.70;5.40;;;4.00;99.90;;;;;;5075629;28;20017;-81
2021/12/04 05:59:26;;;;;;;7.55;4.93;;;4.00;99.90;;;;;;5075736;28;20023;-82
2021/12/04 06:01:52;;;;;;;7.50;5.22;;;4.00;99.90;;;;;;5075619;28;20039;-82
2021/12/04 06:04:18;;;;;;;6.50;4.65;;;4.00;99.90;;;;;;5075681;28;20021;-82
2021/12/04 06:06:44;;;;;;;10.77;5.18;;;4.00;99.90;;;;;;5075335;28;20027;-81
2021/12/04 06:09:10;;;;;;;11.27;4.85;;;3.90;99.90;;;;;;5075244;28;20021;-81
2021/12/04 06:11:36;;;;;;;7.07;4.85;;;3.90;99.90;;;;;;5075473;28;20020;-81
2021/12/04 06:14:03;;;;;;;7.03;4.57;;;3.90;99.90;;;;;;5075485;28;20035;-81
2021/12/04 06:16:29;;;;;;;7.13;4.90;;;3.90;99.90;;;;;;5075334;28;20075;-81
2021/12/04 06:18:55;;;;;;;8.82;5.28;;;3.80;99.90;;;;;;5075288;28;20029;-80
2021/12/04 06:24:06;;;;;;;6.43;4.57;;;3.80;99.90;;;;;;5075443;28;20055;-80
2021/12/04 06:26:33;;;;;;;6.75;4.93;;;3.80;99.90;;;;;;5073841;28;20066;-81
2021/12/04 06:28:59;;;;;;;6.82;5.35;;;3.80;99.90;;;;;;5074816;28;20028;-81
2021/12/04 06:31:26;;;;;;;12.38;5.57;;;3.80;99.90;;;;;;5074343;28;20016;-81
2021/12/04 06:33:52;;;;;;;14.95;4.78;;;3.80;99.90;;;;;;5074878;28;20275;-81
2021/12/04 06:36:18;;;;;;;6.90;4.78;;;3.80;99.90;;;;;;5074708;28;20103;-80
2021/12/04 06:38:44;;;;;;;9.18;4.32;;;3.80;99.90;;;;;;5074500;28;20025;-80
2021/12/04 06:41:11;;;;;;;7.57;4.90;;;3.80;99.90;;;;;;5076155;28;20009;-80
2021/12/04 06:43:40;;;;;;;10.20;4.93;;;3.80;99.90;;;;;;5074348;28;20052;-81
2021/12/04 06:46:08;;;;;;;13.50;5.35;;;3.80;99.90;;;;;;5074900;28;20021;-80
2021/12/04 06:48:42;;;;;;;10.02;5.38;;;3.80;99.90;;;;;;5074590;28;20115;-80
2021/12/04 06:53:57;;;;;;;8.68;4.93;;;3.90;99.90;;;;;;5074832;28;20124;-81
2021/12/04 06:56:24;;;;;;;8.23;4.30;;;4.00;99.90;;;;;;5074696;28;20100;-81
2021/12/04 06:58:52;;;;;;;9.88;4.55;;;4.10;99.90;;;;;;5074485;28;20028;-81
2021/12/04 07:01:18;;;;;;;9.48;5.28;;;4.20;99.90;;;;;;5074388;28;20047;-81
2021/12/04 07:03:44;;;;;;;10.07;5.32;;;4.30;99.90;;;;;;5073122;28;20029;-81
2021/12/04 07:06:09;;;;;;;10.32;5.07;;;4.30;99.90;;;;;;5074488;28;20029;-82
2021/12/04 07:08:35;;;;;;;7.30;4.82;;;4.40;99.90;;;;;;5073772;28;20028;-82
2021/12/04 07:11:04;;;;;;;7.85;5.43;;;4.50;99.90;;;;;;5074079;28;20494;-81
2021/12/04 07:13:30;;;;;;;12.40;5.55;;;4.60;99.90;;;;;;5073526;28;20024;-80
2021/12/04 07:16:06;;;;;;;9.68;5.75;;;4.70;99.90;;;;;;5074160;28;20052;-81
2021/12/04 07:18:34;;;;;;;7.93;5.45;;;4.80;99.90;;;;;;5072781;28;20059;-81
2021/12/04 07:21:00;;;;;;;11.15;5.57;;;4.90;99.90;;;;;;5074068;28;20021;-81
2021/12/04 07:23:26;;;;;;;13.50;5.22;;;5.00;99.90;;;;;;5072771;28;20524;-81
2021/12/04 07:25:52;;;;;;;16.27;5.32;;;5.00;99.90;;;;;;5073884;28;20103;-81
2021/12/04 07:28:18;;;;;;;9.27;5.38;;;5.10;99.90;;;;;;5073864;28;20111;-82
2021/12/04 07:30:44;;;;;;;8.13;4.93;;;5.20;99.90;;;;;;5073539;28;20122;-81
2021/12/04 07:33:09;;;;;;;28.17;13.68;;;5.20;99.90;;;;;;5073898;28;20468;-82
2021/12/04 07:35:35;;;;;;;21.05;8.52;;;5.40;99.90;;;;;;5073179;28;20036;-81
2021/12/04 07:38:01;;;;;;;16.10;6.00;;;5.80;99.90;;;;;;5073577;28;20419;-80
2021/12/04 07:40:27;;;;;;;9.82;5.88;;;6.20;99.90;;;;;;5073417;28;20111;-80
2021/12/04 07:42:53;;;;;;;7.90;5.53;;;6.60;99.90;;;;;;5072111;28;20063;-80
2021/12/04 07:45:19;;;;;;;12.48;5.90;;;6.80;99.90;;;;;;5073131;28;20383;-81
2021/12/04 07:47:46;;;;;;;15.48;7.28;;;7.10;99.90;;;;;;5073042;28;20034;-81
2021/12/04 07:50:13;;;;;;;12.75;7.93;;;7.50;99.90;;;;;;5073412;28;20021;-81
2021/12/04 07:52:39;;;;;;;14.13;6.25;;;7.90;99.90;;;;;;5073525;28;20039;-81
2021/12/04 07:55:07;;;;;;;10.00;6.15;;;8.40;99.90;;;;;;5073512;28;20490;-81
2021/12/04 07:57:33;;;;;;;10.23;6.10;;;9.70;99.90;;;;;;5073467;28;20115;-81
2021/12/04 07:59:59;;;;;;;7.53;4.47;;;10.60;99.90;;;;;;5072711;28;20091;-80
2021/12/04 08:02:24;;;;;;;6.78;4.45;;;11.10;99.90;;;;;;5072735;28;20465;-80
2021/12/04 08:04:50;;;;;;;18.73;3.97;;;11.60;99.90;;;;;;5073008;28;20031;-80
2021/12/04 08:07:16;;;;;;;6.40;4.38;;;11.10;99.90;;;;;;5073412;28;20489;-80
2021/12/04 08:09:41;;;;;;;6.38;4.25;;;10.20;99.90;;;;;;5072278;28;20185;-82
2021/12/04 08:12:09;;;;;;;10.10;4.57;;;9.80;99.90;;;;;;5072171;28;20020;-82
2021/12/04 08:14:35;;;;;;;7.07;5.10;;;9.20;99.90;;;;;;5072069;28;20033;-82
2021/12/04 08:17:01;;;;;;;14.35;8.80;;;9.00;99.90;;;;;;5072729;28;20068;-82
2021/12/04 08:19:27;;;;;;;9.20;4.82;;;8.60;99.90;;;;;;5071250;28;20040;-81
2021/12/04 08:21:53;;;;;;;12.43;4.60;;;8.30;99.90;;;;;;5071332;28;20036;-83
2021/12/04 08:24:18;;;;;;;6.72;4.28;;;8.00;99.90;;;;;;5071121;28;20419;-80
2021/12/04 08:26:46;;;;;;;15.73;5.80;;;7.60;99.90;;;;;;5071932;28;20531;-83
2021/12/04 08:29:12;;;;;;;26.73;17.75;;;7.50;99.90;;;;;;5071278;28;20013;-81
2021/12/04 08:31:38;;;;;;;14.57;9.38;;;7.30;99.90;;;;;;5072538;28;20091;-81
2021/12/04 08:34:04;;;;;;;38.65;22.67;;;7.10;99.90;;;;;;5072983;28;20048;-81
2021/12/04 08:36:32;;;;;;;26.23;16.10;;;7.00;99.90;;;;;;5072619;28;20025;-81
2021/12/04 08:38:59;;;;;;;10.63;7.18;;;7.20;99.90;;;;;;5072154;28;20044;-82
2021/12/04 08:41:26;;;;;;;7.68;4.60;;;7.50;99.90;;;;;;5069184;28;20095;-80
2021/12/04 08:43:54;;;;;;;7.18;4.45;;;7.90;99.90;;;;;;5071872;28;20040;-83
2021/12/04 08:46:21;;;;;;;12.55;8.27;;;8.20;99.90;;;;;;5071991;28;20051;-83
2021/12/04 08:48:52;;;;;;;10.77;5.72;;;8.40;99.90;;;;;;5072051;28;20047;-80
2021/12/04 08:51:21;;;;;;;9.43;4.90;;;8.60;99.90;;;;;;5072466;28;20029;-81
2021/12/04 08:53:51;;;;;;;9.77;5.88;;;8.60;99.90;;;;;;5070867;28;20040;-79
2021/12/04 08:56:17;;;;;;;6.50;4.72;;;8.80;99.90;;;;;;5072482;28;20025;-79
2021/12/04 08:58:43;;;;;;;19.20;10.45;;;9.00;99.90;;;;;;5072385;28;20520;-80
2021/12/04 09:01:13;;;;;;;9.40;5.40;;;9.00;99.90;;;;;;5072369;28;20020;-78
2021/12/04 09:03:48;;;;;;;7.80;4.70;;;9.10;99.90;;;;;;5072598;28;20427;-80
2021/12/04 09:06:14;;;;;;;9.10;4.57;;;9.30;99.90;;;;;;5072652;28;20020;-78
2021/12/04 09:08:40;;;;;;;4.55;3.75;;;9.70;99.90;;;;;;5073910;28;20043;-79
2021/12/04 09:11:12;;;;;;;4.70;3.60;;;10.70;99.90;;;;;;5072847;28;20477;-81
2021/12/04 09:13:38;;;;;;;13.65;4.05;;;12.50;99.90;;;;;;5072857;28;20070;-81
2021/12/04 09:16:05;;;;;;;11.13;3.53;;;14.40;99.90;;;;;;5072389;28;20032;-82
2021/12/04 09:18:31;;;;;;;6.22;3.88;;;15.60;99.20;;;;;;5071259;28;20020;-81
2021/12/04 09:20:57;;;;;;;6.28;2.45;;;16.50;98.10;;;;;;5072577;28;20032;-81
2021/12/04 09:23:29;;;;;;;8.63;3.28;;;17.30;94.60;;;;;;5072528;28;20361;-82
2021/12/04 09:25:59;;;;;;;6.20;3.08;;;17.10;93.40;;;;;;5072594;28;20465;-81
2021/12/04 09:28:51;;;;;;;4.10;2.50;;;17.10;92.70;;;;;;5072929;28;20043;-82
2021/12/04 09:34:33;;;;;;;;;;;16.60;91.60;;;;;;5041792;28;20044;-81
2021/12/04 09:59:09;;;;;;;4.00;2.15;;;14.70;91.70;;;;;;5072322;28;20059;-81
2021/12/04 10:02:03;;;;;;;4.50;2.30;;;14.00;92.10;;;;;;5072476;28;20396;-79
2021/12/04 10:20:34;;;;;;;6.68;3.38;;;13.30;91.60;;;;;;5075437;28;20039;-79
2021/12/04 10:23:38;;;;;;;8.68;3.92;;;13.00;91.90;;;;;;5074072;28;20033;-79
2021/12/04 10:33:45;;;;;;;4.22;2.70;;;12.40;91.50;;;;;;5073197;28;20043;-79
2021/12/04 10:36:12;;;;;;;17.60;3.13;;;12.40;91.30;;;;;;5074351;28;20048;-79
2021/12/04 10:38:44;;;;;;;8.57;3.33;;;12.40;91.60;;;;;;5074395;28;20469;-81
2021/12/04 10:41:12;;;;;;;8.77;3.10;;;12.40;92.40;;;;;;5072830;28;20115;-80
2021/12/04 10:43:38;;;;;;;4.63;2.70;;;12.40;92.40;;;;;;5074153;28;20098;-79
2021/12/04 10:46:14;;;;;;;6.95;3.10;;;12.80;92.00;;;;;;5074262;28;20036;-79
2021/12/04 10:48:49;;;;;;;18.27;4.13;;;13.40;91.40;;;;;;5074013;28;20097;-79
2021/12/04 10:51:30;;;;;;;8.38;6.00;;;13.80;90.70;;;;;;5074505;28;20041;-79
2021/12/04 10:54:03;;;;;;;9.07;5.80;;;13.70;90.60;;;;;;5073073;28;20423;-80
2021/12/04 11:02:03;;;;;;;15.05;9.77;;;13.10;91.30;;;;;;5073953;28;20437;-79
2021/12/04 11:47:17;;;;;;;6.70;3.15;;;14.10;88.80;;;;;;5074324;28;20024;-82
2021/12/04 11:49:44;;;;;;;3.80;1.95;;;13.90;88.60;;;;;;5072438;28;20020;-81
2021/12/04 11:52:17;;;;;;;3.35;2.63;;;13.80;89.30;;;;;;5072377;28;20032;-80
2021/12/04 11:54:58;;;;;;;4.55;2.78;;;13.60;89.50;;;;;;5073602;28;20020;-80
2021/12/04 11:57:36;;;;;;;8.77;3.73;;;13.30;90.10;;;;;;5073568;28;20021;-82
2021/12/04 12:00:32;;;;;;;7.75;3.10;;;13.00;90.60;;;;;;5073728;28;20027;-81
2021/12/04 12:03:10;;;;;;;7.68;2.88;;;12.80;90.50;;;;;;5072205;28;20078;-81
2021/12/04 12:05:57;;;;;;;6.90;2.92;;;12.60;91.00;;;;;;5073326;28;20025;-81
2021/12/04 12:08:33;;;;;;;11.32;3.30;;;12.50;91.80;;;;;;5073428;28;20044;-81
2021/12/04 12:11:08;;;;;;;3.35;2.40;;;12.30;92.30;;;;;;5073278;28;20027;-81
2021/12/04 12:13:46;;;;;;;4.50;3.03;;;12.10;94.30;;;;;;5073655;28;20142;-81
2021/12/04 12:16:24;;;;;;;6.00;3.15;;;12.10;95.10;;;;;;5072282;28;20109;-81
2021/12/04 12:18:52;;;;;;;8.75;3.38;;;12.00;95.10;;;;;;5072544;28;20028;-80
2021/12/04 12:21:27;;;;;;;4.35;2.83;;;11.90;94.30;;;;;;5072291;28;20031;-79
2021/12/04 12:27:21;;;;;;;5.40;2.50;;;11.90;95.30;;;;;;5071600;28;20035;-84
2021/12/04 12:38:40;;;;;;;5.22;2.63;;;11.60;96.30;;;;;;5068661;28;20105;-78
2021/12/04 12:41:08;;;;;;;14.55;3.33;;;11.60;96.80;;;;;;5070919;28;20063;-78
2021/12/04 12:43:37;;;;;;;6.97;3.10;;;11.60;97.00;;;;;;5070471;28;20049;-79
2021/12/04 12:46:03;;;;;;;4.18;2.72;;;11.60;97.20;;;;;;5071034;28;20380;-78
2021/12/04 12:48:29;;;;;;;4.78;3.45;;;11.60;97.50;;;;;;5069854;28;20103;-80
2021/12/04 12:51:06;;;;;;;11.02;4.20;;;11.50;98.00;;;;;;5071103;28;20074;-80
2021/12/04 12:53:41;;;;;;;5.57;3.65;;;11.50;98.30;;;;;;5071418;28;20013;-74
2021/12/04 12:56:10;;;;;;;11.05;3.95;;;11.50;98.40;;;;;;5064943;28;20028;-76
2021/12/04 12:58:53;;;;;;;10.75;4.30;;;11.50;98.70;;;;;;5069085;28;20024;-75
2021/12/04 13:12:52;;;;;;;4.32;2.88;;;11.60;99.30;;;;;;5069879;28;20039;-74
2021/12/04 13:15:33;;;;;;;8.60;3.53;;;11.50;99.70;;;;;;5070850;28;20028;-73
2021/12/04 13:18:10;;;;;;;6.35;4.30;;;11.50;99.90;;;;;;5069226;28;20028;-73
2021/12/04 13:20:37;;;;;;;6.68;3.88;;;11.40;99.80;;;;;;5070582;28;20016;-75
2021/12/04 13:23:15;;;;;;;5.32;3.42;;;11.30;99.90;;;;;;5070742;28;20024;-74
2021/12/04 13:25:50;;;;;;;7.07;3.13;;;11.30;99.90;;;;;;5070869;28;20017;-74
2021/12/04 13:28:23;;;;;;;6.10;3.72;;;11.20;99.90;;;;;;5070831;28;20033;-77
2021/12/04 13:30:49;;;;;;;4.93;2.97;;;11.20;99.90;;;;;;5070806;28;20094;-76
2021/12/04 13:33:15;;;;;;;4.72;3.60;;;11.20;99.90;;;;;;5070635;28;20048;-81
2021/12/04 13:35:45;;;;;;;5.43;3.45;;;11.10;99.90;;;;;;5070169;28;20055;-81
2021/12/04 13:38:13;;;;;;;5.75;3.58;;;11.10;99.90;;;;;;5069558;28;20108;-81
2021/12/04 13:40:40;;;;;;;6.28;3.90;;;11.10;99.90;;;;;;5070554;28;20489;-82
2021/12/04 13:43:11;;;;;;;7.35;4.53;;;11.10;99.90;;;;;;5073402;28;20039;-79
2021/12/04 13:45:37;;;;;;;6.40;4.38;;;11.00;99.90;;;;;;5073747;28;20082;-74
2021/12/04 13:48:04;;;;;;;15.13;4.40;;;10.90;99.90;;;;;;5073508;28;20108;-82
2021/12/04 13:53:14;;;;;;;13.27;4.22;;;10.80;99.90;;;;;;5073669;28;20025;-74
2021/12/04 13:55:42;;;;;;;21.40;4.82;;;10.70;99.90;;;;;;5073300;28;20099;-74
2021/12/04 13:58:08;;;;;;;31.85;5.20;;;10.50;99.90;;;;;;5073441;28;20048;-84
2021/12/04 14:00:34;;;;;;;21.73;4.82;;;10.40;99.90;;;;;;5075234;28;20059;-72
2021/12/04 14:03:00;;;;;;;17.23;5.72;;;10.30;99.90;;;;;;5073914;28;20025;-78
2021/12/04 14:05:26;;;;;;;17.40;6.68;;;10.20;99.90;;;;;;5074177;28;20082;-79
2021/12/04 14:07:55;;;;;;;20.75;7.85;;;10.10;99.90;;;;;;5073751;28;20538;-80
2021/12/04 14:10:26;;;;;;;8.95;4.72;;;10.10;99.90;;;;;;5074374;28;20042;-74
2021/12/04 14:12:54;;;;;;;14.52;6.15;;;10.00;99.90;;;;;;5074135;28;20052;-75
2021/12/04 14:15:22;;;;;;;8.00;4.20;;;9.90;99.90;;;;;;5074240;28;20039;-76
2021/12/04 14:18:07;;;;;;;8.13;4.80;;;9.90;99.90;;;;;;5070866;28;20029;-73
2021/12/04 14:20:35;;;;;;;16.00;7.97;;;9.90;99.90;;;;;;5073552;28;20499;-74
2021/12/04 14:23:01;;;;;;;16.20;9.30;;;9.80;99.90;;;;;;5073668;28;20029;-74
2021/12/04 14:25:28;;;;;;;18.40;8.77;;;9.80;99.90;;;;;;5073799;28;20028;-75
2021/12/04 14:27:55;;;;;;;8.88;6.22;;;9.80;99.90;;;;;;5070996;28;20081;-79
2021/12/04 14:30:31;;;;;;;9.75;4.65;;;9.80;99.90;;;;;;5073180;28;20021;-74
2021/12/04 14:32:58;;;;;;;12.00;5.85;;;9.80;99.90;;;;;;5072481;28;20465;-73
2021/12/04 14:35:37;;;;;;;11.18;5.93;;;9.80;99.90;;;;;;5074030;28;20028;-73
2021/12/04 14:38:10;;;;;;;10.45;6.15;;;9.70;99.90;;;;;;5073465;28;20471;-74
2021/12/04 14:41:04;;;;;;;11.88;7.35;;;9.70;99.90;;;;;;5073361;28;20404;-73
2021/12/04 14:43:35;;;;;;;15.57;6.30;;;9.60;99.90;;;;;;5068672;28;20066;-74
2021/12/04 14:46:01;;;;;;;8.38;5.05;;;9.60;99.90;;;;;;5073646;28;20036;-75
2021/12/04 14:48:33;;;;;;;7.28;4.68;;;9.60;99.90;;;;;;5073770;28;20025;-75
2021/12/04 14:51:06;;;;;;;;;;;9.50;99.90;;;;;;5073625;28;20107;-75
2021/12/04 14:53:34;;;;;;;;;;;9.50;99.90;;;;;;5073889;28;20444;-74
2021/12/04 14:56:05;;;;;;;15.75;8.55;;;9.50;99.90;;;;;;5073521;28;19905;-77
2021/12/04 14:58:30;;;;;;;18.90;9.45;;;9.40;99.90;;;;;;5072382;28;20029;-73
2021/12/04 15:01:00;;;;;;;17.20;9.02;;;9.40;99.90;;;;;;5073392;28;20028;-77
2021/12/04 15:04:02;;;;;;;17.15;8.63;;;9.40;99.90;;;;;;5072938;28;20038;-73
2021/12/04 15:06:32;;;;;;;16.13;8.60;;;9.30;99.90;;;;;;5073537;28;20027;-74
2021/12/04 15:09:10;;;;;;;12.70;6.93;;;9.30;99.90;;;;;;5073201;28;20104;-72
2021/12/04 15:11:44;;;;;;;10.60;5.72;;;9.30;99.90;;;;;;5073305;28;20071;-73
2021/12/04 15:14:16;;;;;;;10.65;5.70;;;9.30;99.90;;;;;;5071687;28;20523;-72
2021/12/04 15:16:49;;;;;;;11.02;6.32;;;9.20;99.90;;;;;;5073005;28;20401;-72
2021/12/04 15:19:40;;;;;;;20.27;6.80;;;9.20;99.90;;;;;;5072422;28;20388;-73
2021/12/04 15:22:13;;;;;;;10.30;6.18;;;9.00;99.90;;;;;;5070031;28;20024;-74
2021/12/04 15:24:42;;;;;;;10.15;7.03;;;9.00;99.90;;;;;;5070402;28;20527;-74
2021/12/04 15:27:18;;;;;;;12.50;7.70;;;8.90;99.90;;;;;;5072768;28;20433;-76
2021/12/04 15:29:48;;;;;;;16.75;8.85;;;8.90;99.90;;;;;;5071997;28;20378;-74
2021/12/04 15:32:22;;;;;;;12.85;7.63;;;8.90;99.90;;;;;;5072372;28;20021;-75
2021/12/04 15:35:03;;;;;;;18.50;8.93;;;8.80;99.90;;;;;;5072897;28;20048;-83
2021/12/04 15:37:35;;;;;;;21.83;10.60;;;8.90;99.90;;;;;;5072777;28;20025;-76
2021/12/04 15:40:05;;;;;;;24.70;14.10;;;8.90;99.90;;;;;;5072690;28;20111;-80
2021/12/04 15:42:52;;;;;;;23.48;13.23;;;8.90;99.90;;;;;;5072325;28;20047;-74
2021/12/04 15:45:46;;;;;;;27.48;14.15;;;8.90;99.90;;;;;;5072632;28;20059;-76
2021/12/04 15:53:22;;;;;;;21.88;10.68;;;8.70;99.90;;;;;;5073195;28;20021;-76
2021/12/04 15:55:52;;;;;;;22.08;14.93;;;8.60;99.90;;;;;;5072434;28;20465;-81
2021/12/04 15:58:25;;;;;;;29.60;20.42;;;8.60;99.90;;;;;;5072573;28;20511;-81
2021/12/04 16:00:54;;;;;;;38.95;22.75;;;8.60;99.90;;;;;;5072087;28;20093;-77
2021/12/04 16:03:23;;;;;;;79.13;60.00;;;8.60;99.90;;;;;;5070706;28;20055;-75
2021/12/04 16:05:52;;;;;;;19.90;11.90;;;8.60;99.90;;;;;;5071509;28;20031;-80
2021/12/04 16:08:30;;;;;;;19.80;10.82;;;8.60;99.90;;;;;;5070591;28;20375;-74
2021/12/04 16:11:01;;;;;;;25.17;15.30;;;8.60;99.90;;;;;;5070721;28;20038;-80
2021/12/04 16:13:31;;;;;;;21.20;11.82;;;8.60;99.90;;;;;;5070668;28;20013;-76
2021/12/04 16:15:58;;;;;;;20.02;10.05;;;8.60;99.90;;;;;;5070078;28;20035;-75